sensor_id;sensor_type;location;lat;lon;timestamp;pressure;altitude;pressure_sealevel;temperature;humidity
75424;BME280;64005;55.160;36.002;2023-07-13T00:03:26;98351.72;;;12.57;73.62
75424;BME280;64005;55.160;36.002;2023-07-13T00:28:06;98341.69;;;12.72;73.11
75424;BME280;64005;55.160;36.002;2023-07-13T00:30:33;98359.84;;;12.82;73.07
75424;BME280;64005;55.160;36.002;2023-07-13T01:30:13;98320.81;;;12.47;74.56
75424;BME280;64005;55.160;36.002;2023-07-13T01:44:04;98316.41;;;12.65;74.42
75424;BME280;64005;55.160;36.002;2023-07-13T01:59:29;98326.91;;;12.91;74.20
75424;BME280;64005;55.160;36.002;2023-07-13T02:12:19;98321.13;;;12.99;73.54
75424;BME280;64005;55.160;36.002;2023-07-13T02:14:49;98322.75;;;13.00;73.32
75424;BME280;64005;55.160;36.002;2023-07-13T02:17:16;98318.03;;;13.04;73.03
75424;BME280;64005;55.160;36.002;2023-07-13T02:30:08;98316.94;;;13.09;72.17
75424;BME280;64005;55.160;36.002;2023-07-13T02:33:08;98313.50;;;13.16;72.25
75424;BME280;64005;55.160;36.002;2023-07-13T02:39:04;98320.63;;;13.13;72.29
75424;BME280;64005;55.160;36.002;2023-07-13T02:46:44;98324.81;;;13.23;72.13
75424;BME280;64005;55.160;36.002;2023-07-13T02:49:30;98322.38;;;13.21;71.92
75424;BME280;64005;55.160;36.002;2023-07-13T03:07:31;98309.34;;;13.29;71.98
75424;BME280;64005;55.160;36.002;2023-07-13T03:12:34;98316.25;;;13.35;71.36
75424;BME280;64005;55.160;36.002;2023-07-13T03:25:24;98322.66;;;13.35;71.20
75424;BME280;64005;55.160;36.002;2023-07-13T03:27:51;98322.69;;;13.39;71.29
75424;BME280;64005;55.160;36.002;2023-07-13T03:30:19;98317.97;;;13.43;71.11
75424;BME280;64005;55.160;36.002;2023-07-13T03:32:46;98317.69;;;13.48;71.10
75424;BME280;64005;55.160;36.002;2023-07-13T03:40:39;98314.72;;;13.60;70.22
75424;BME280;64005;55.160;36.002;2023-07-13T03:48:58;98255.53;;;13.32;69.70
75424;BME280;64005;55.160;36.002;2023-07-13T04:08:51;98323.97;;;14.13;68.75
75424;BME280;64005;55.160;36.002;2023-07-13T04:19:05;98334.47;;;14.76;67.50
75424;BME280;64005;55.160;36.002;2023-07-13T07:39:01;98327.84;;;18.64;55.11
75424;BME280;64005;55.160;36.002;2023-07-13T11:43:07;98238.59;;;24.44;43.17
75424;BME280;64005;55.160;36.002;2023-07-13T11:50:50;98239.81;;;24.60;42.82
75424;BME280;64005;55.160;36.002;2023-07-13T11:53:37;98229.97;;;24.77;42.55
75424;BME280;64005;55.160;36.002;2023-07-13T13:13:12;98175.16;;;26.72;28.85
75424;BME280;64005;55.160;36.002;2023-07-13T13:51:55;98145.22;;;25.98;29.93
75424;BME280;64005;55.160;36.002;2023-07-13T15:07:04;98110.06;;;24.78;31.90
75424;BME280;64005;55.160;36.002;2023-07-13T15:09:31;98099.34;;;24.82;31.84
75424;BME280;64005;55.160;36.002;2023-07-13T15:45:34;98071.41;;;28.13;28.68
75424;BME280;64005;55.160;36.002;2023-07-13T15:51:21;98120.34;;;29.30;27.53
75424;BME280;64005;55.160;36.002;2023-07-13T16:01:37;98111.59;;;26.28;32.71
75424;BME280;64005;55.160;36.002;2023-07-13T16:04:13;98103.78;;;26.06;33.47
75424;BME280;64005;55.160;36.002;2023-07-13T19:05:45;98057.09;;;16.65;63.85
75424;BME280;64005;55.160;36.002;2023-07-13T19:08:17;98018.16;;;16.35;64.02
75424;BME280;64005;55.160;36.002;2023-07-13T19:10:48;98116.50;;;16.95;64.38
75424;BME280;64005;55.160;36.002;2023-07-13T19:13:20;98145.84;;;17.01;64.61
75424;BME280;64005;55.160;36.002;2023-07-13T19:15:49;98154.25;;;16.94;64.90
75424;BME280;64005;55.160;36.002;2023-07-13T19:18:18;98155.06;;;16.88;65.10
75424;BME280;64005;55.160;36.002;2023-07-13T19:20:50;98149.41;;;16.77;65.26
75424;BME280;64005;55.160;36.002;2023-07-13T19:23:25;98150.19;;;16.67;65.56
75424;BME280;64005;55.160;36.002;2023-07-13T19:25:54;98158.59;;;16.63;65.77
75424;BME280;64005;55.160;36.002;2023-07-13T19:28:29;98161.34;;;16.53;66.02
75424;BME280;64005;55.160;36.002;2023-07-13T19:30:58;98153.28;;;16.44;65.98
75424;BME280;64005;55.160;36.002;2023-07-13T19:33:25;98162.09;;;16.39;66.07
75424;BME280;64005;55.160;36.002;2023-07-13T19:35:54;98160.84;;;16.29;66.39
75424;BME280;64005;55.160;36.002;2023-07-13T19:38:24;98149.16;;;16.17;66.29
75424;BME280;64005;55.160;36.002;2023-07-13T19:40:53;98163.19;;;16.17;66.35
75424;BME280;64005;55.160;36.002;2023-07-13T19:43:21;98162.34;;;16.09;66.50
75424;BME280;64005;55.160;36.002;2023-07-13T19:45:49;98164.72;;;16.04;66.61
75424;BME280;64005;55.160;36.002;2023-07-13T19:48:19;98153.03;;;15.87;66.81
75424;BME280;64005;55.160;36.002;2023-07-13T19:50:47;98167.44;;;15.89;66.74
75424;BME280;64005;55.160;36.002;2023-07-13T19:53:18;98170.63;;;15.84;66.72
75424;BME280;64005;55.160;36.002;2023-07-13T19:55:46;98169.00;;;15.80;66.83
75424;BME280;64005;55.160;36.002;2023-07-13T19:58:14;98165.78;;;15.74;66.83
75424;BME280;64005;55.160;36.002;2023-07-13T20:00:42;98167.34;;;15.68;66.82
75424;BME280;64005;55.160;36.002;2023-07-13T20:03:10;98164.47;;;15.61;67.11
75424;BME280;64005;55.160;36.002;2023-07-13T20:05:37;98169.66;;;15.56;67.11
75424;BME280;64005;55.160;36.002;2023-07-13T20:08:13;98159.53;;;15.47;67.27
75424;BME280;64005;55.160;36.002;2023-07-13T20:10:48;98155.88;;;15.40;67.21
75424;BME280;64005;55.160;36.002;2023-07-13T20:13:17;98153.03;;;15.33;67.44
75424;BME280;64005;55.160;36.002;2023-07-13T20:15:48;98157.38;;;15.27;67.56
75424;BME280;64005;55.160;36.002;2023-07-13T20:18:16;98156.44;;;15.12;67.84
75424;BME280;64005;55.160;36.002;2023-07-13T20:20:45;98156.00;;;15.10;67.98
75424;BME280;64005;55.160;36.002;2023-07-13T20:23:16;98145.16;;;15.01;67.80
75424;BME280;64005;55.160;36.002;2023-07-13T20:25:45;98151.91;;;14.97;68.11
75424;BME280;64005;55.160;36.002;2023-07-13T20:28:15;98149.03;;;14.90;68.13
75424;BME280;64005;55.160;36.002;2023-07-13T20:30:45;98149.38;;;14.81;68.18
75424;BME280;64005;55.160;36.002;2023-07-13T20:48:47;98166.00;;;14.33;69.28
75424;BME280;64005;55.160;36.002;2023-07-13T20:51:16;98177.63;;;14.36;69.41
75424;BME280;64005;55.160;36.002;2023-07-13T21:06:44;98180.13;;;13.84;70.59
75424;BME280;64005;55.160;36.002;2023-07-13T21:09:16;98191.63;;;13.79;70.47
75424;BME280;64005;55.160;36.002;2023-07-13T21:27:17;98194.44;;;13.30;71.07
75424;BME280;64005;55.160;36.002;2023-07-13T21:29:45;98184.28;;;13.19;70.87
75424;BME280;64005;55.160;36.002;2023-07-13T21:32:15;98183.84;;;13.17;70.72
75424;BME280;64005;55.160;36.002;2023-07-13T21:34:45;98188.09;;;13.10;71.24
75424;BME280;64005;55.160;36.002;2023-07-13T21:37:16;98122.78;;;12.69;71.18
75424;BME280;64005;55.160;36.002;2023-07-13T21:39:49;98191.56;;;13.04;71.13
75424;BME280;64005;55.160;36.002;2023-07-13T21:45:30;98191.13;;;12.79;71.20
75424;BME280;64005;55.160;36.002;2023-07-13T21:47:58;98194.69;;;12.76;71.00
75424;BME280;64005;55.160;36.002;2023-07-13T21:50:33;98189.75;;;12.69;71.79
75424;BME280;64005;55.160;36.002;2023-07-13T21:53:05;98205.06;;;12.56;72.06
75424;BME280;64005;55.160;36.002;2023-07-13T21:55:56;98205.34;;;12.51;71.75
75424;BME280;64005;55.160;36.002;2023-07-13T22:03:37;98207.16;;;12.24;72.63
75424;BME280;64005;55.160;36.002;2023-07-13T22:06:06;98211.22;;;12.27;72.56
75424;BME280;64005;55.160;36.002;2023-07-13T22:08:38;98203.22;;;12.25;72.93
75424;BME280;64005;55.160;36.002;2023-07-13T22:11:09;98195.31;;;12.27;72.47
75424;BME280;64005;55.160;36.002;2023-07-13T22:13:46;98204.38;;;12.24;72.39
75424;BME280;64005;55.160;36.002;2023-07-13T22:16:16;98196.69;;;12.18;72.80
75424;BME280;64005;55.160;36.002;2023-07-13T22:18:47;98198.25;;;12.15;72.33
75424;BME280;64005;55.160;36.002;2023-07-13T22:21:16;98202.03;;;12.07;72.40
75424;BME280;64005;55.160;36.002;2023-07-13T22:28:56;98086.25;;;11.21;72.23
75424;BME280;64005;55.160;36.002;2023-07-13T22:31:30;98098.03;;;11.14;72.31
75424;BME280;64005;55.160;36.002;2023-07-13T22:36:47;98074.44;;;10.92;72.21
75424;BME280;64005;55.160;36.002;2023-07-13T22:41:57;98222.47;;;11.76;72.71
75424;BME280;64005;55.160;36.002;2023-07-13T22:44:26;98184.09;;;11.54;72.85
75424;BME280;64005;55.160;36.002;2023-07-13T22:46:55;98219.91;;;11.71;72.74
75424;BME280;64005;55.160;36.002;2023-07-13T22:49:24;98205.63;;;11.57;73.03
75424;BME280;64005;55.160;36.002;2023-07-13T22:51:56;98219.03;;;11.67;72.82
75424;BME280;64005;55.160;36.002;2023-07-13T22:54:24;98220.53;;;11.65;73.33
75424;BME280;64005;55.160;36.002;2023-07-13T22:56:52;98219.72;;;11.64;73.30
75424;BME280;64005;55.160;36.002;2023-07-13T23:02:17;98228.66;;;11.54;73.39
75424;BME280;64005;55.160;36.002;2023-07-13T23:04:45;98225.00;;;11.50;72.97
75424;BME280;64005;55.160;36.002;2023-07-13T23:07:16;98228.47;;;11.47;72.60
75424;BME280;64005;55.160;36.002;2023-07-13T23:09:45;98226.69;;;11.39;73.24
75424;BME280;64005;55.160;36.002;2023-07-13T23:12:13;98220.41;;;11.42;73.27
75424;BME280;64005;55.160;36.002;2023-07-13T23:14:40;98219.50;;;11.38;73.05
75424;BME280;64005;55.160;36.002;2023-07-13T23:17:10;98211.06;;;11.34;73.55
75424;BME280;64005;55.160;36.002;2023-07-13T23:19:39;98200.63;;;11.31;73.17
75424;BME280;64005;55.160;36.002;2023-07-13T23:22:19;98207.53;;;11.37;72.94
75424;BME280;64005;55.160;36.002;2023-07-13T23:24:50;98212.94;;;11.30;73.76
75424;BME280;64005;55.160;36.002;2023-07-13T23:27:17;98208.00;;;11.24;73.79
75424;BME280;64005;55.160;36.002;2023-07-13T23:29:45;98201.56;;;11.20;73.78
75424;BME280;64005;55.160;36.002;2023-07-13T23:32:13;98201.28;;;11.25;73.94
75424;BME280;64005;55.160;36.002;2023-07-13T23:34:41;98205.78;;;11.29;74.16
75424;BME280;64005;55.160;36.002;2023-07-13T23:37:16;98209.38;;;11.30;74.00
75424;BME280;64005;55.160;36.002;2023-07-13T23:39:44;98207.03;;;11.32;73.60
75424;BME280;64005;55.160;36.002;2023-07-13T23:42:11;98221.75;;;11.32;74.21
75424;BME280;64005;55.160;36.002;2023-07-13T23:44:39;98211.78;;;11.31;74.07
75424;BME280;64005;55.160;36.002;2023-07-13T23:47:08;98220.13;;;11.31;73.82
75424;BME280;64005;55.160;36.002;2023-07-13T23:49:35;98214.50;;;11.28;74.04
75424;BME280;64005;55.160;36.002;2023-07-13T23:52:09;98209.28;;;11.26;74.26
75424;BME280;64005;55.160;36.002;2023-07-13T23:54:40;98211.59;;;11.24;74.39
75424;BME280;64005;55.160;36.002;2023-07-13T23:57:08;98212.50;;;11.28;74.46
75424;BME280;64005;55.160;36.002;2023-07-13T23:59:36;98213.41;;;11.32;75.31
